createdAt,value
2023-01-27T00:01:10.131Z,3.65
2023-01-27T00:03:37.864Z,3.57
2023-01-27T00:06:06.811Z,3.66
2023-01-27T00:08:34.768Z,3.75
2023-01-27T00:11:20.437Z,3.63
2023-01-27T00:13:47.841Z,3.62
2023-01-27T00:16:15.183Z,3.63
2023-01-27T00:18:42.907Z,3.66
2023-01-27T00:21:28.764Z,3.63
2023-01-27T00:24:15.392Z,3.62
2023-01-27T00:26:42.821Z,3.58
2023-01-27T00:29:10.305Z,3.56
2023-01-27T00:31:56.309Z,3.61
2023-01-27T00:34:23.745Z,3.54
2023-01-27T00:36:51.351Z,3.65
2023-01-27T00:39:18.448Z,3.61
2023-01-27T00:41:45.672Z,3.66
2023-01-27T00:44:15.718Z,3.59
2023-01-27T00:46:43.554Z,3.61
2023-01-27T00:49:13.668Z,3.71
2023-01-27T00:51:41.932Z,3.71
2023-01-27T00:54:09.334Z,3.69
2023-01-27T00:56:37.287Z,3.80
2023-01-27T00:59:05.282Z,3.72
2023-01-27T01:01:34.842Z,3.78
2023-01-27T01:04:02.856Z,3.80
2023-01-27T01:06:31.737Z,3.79
2023-01-27T01:09:00.181Z,3.81
2023-01-27T01:11:28.169Z,3.85
2023-01-27T01:13:56.511Z,3.90
2023-01-27T01:16:25.184Z,3.93
2023-01-27T01:18:53.172Z,3.79
2023-01-27T01:21:21.012Z,3.97
2023-01-27T01:23:48.300Z,3.91
2023-01-27T01:26:17.498Z,3.89
2023-01-27T01:28:45.816Z,3.96
2023-01-27T01:31:19.261Z,3.96
2023-01-27T01:33:47.056Z,3.98
2023-01-27T01:36:17.607Z,3.95
2023-01-27T01:38:45.411Z,4.00
2023-01-27T01:41:20.777Z,4.01
2023-01-27T01:43:48.873Z,4.00
2023-01-27T01:46:17.988Z,4.00
2023-01-27T01:48:47.698Z,4.00
2023-01-27T01:51:18.586Z,3.83
2023-01-27T01:54:07.354Z,3.96
2023-01-27T01:57:06.543Z,3.98
2023-01-27T01:59:35.985Z,3.96
2023-01-27T02:02:07.569Z,3.92
2023-01-27T02:04:42.472Z,3.94
2023-01-27T02:07:17.248Z,3.91
2023-01-27T02:09:44.934Z,3.89
2023-01-27T02:12:12.365Z,3.96
2023-01-27T02:14:41.481Z,3.87
2023-01-27T02:17:11.803Z,3.92
2023-01-27T02:19:45.060Z,3.89
2023-01-27T02:22:22.776Z,3.93
2023-01-27T02:24:59.049Z,3.91
2023-01-27T02:27:26.634Z,3.77
2023-01-27T02:29:53.875Z,3.93
2023-01-27T02:32:27.983Z,3.87
2023-01-27T02:34:57.639Z,3.91
2023-01-27T02:37:30.890Z,3.83
2023-01-27T02:40:01.909Z,3.83
2023-01-27T02:42:29.964Z,3.77
2023-01-27T02:44:57.263Z,3.83
2023-01-27T02:47:25.305Z,3.91
2023-01-27T02:49:54.964Z,3.86
2023-01-27T02:52:23.165Z,3.85
2023-01-27T02:54:50.788Z,3.86
2023-01-27T02:57:19.362Z,3.88
2023-01-27T03:00:06.968Z,3.85
2023-01-27T03:02:34.283Z,3.84
2023-01-27T03:05:03.601Z,3.85
2023-01-27T03:07:30.809Z,3.83
2023-01-27T03:10:01.013Z,3.75
2023-01-27T03:12:30.086Z,3.84
2023-01-27T03:15:16.311Z,3.81
2023-01-27T03:18:02.138Z,3.84
2023-01-27T03:20:29.779Z,3.94
2023-01-27T03:22:57.240Z,3.95
2023-01-27T03:25:25.876Z,4.00
2023-01-27T03:27:57.485Z,4.00
2023-01-27T03:31:06.141Z,3.94
2023-01-27T03:33:48.107Z,3.99
2023-01-27T03:36:54.265Z,4.03
2023-01-27T03:39:41.452Z,4.08
2023-01-27T03:42:27.694Z,4.17
2023-01-27T03:45:16.593Z,4.14
2023-01-27T03:47:44.243Z,4.22
2023-01-27T03:50:19.812Z,4.12
2023-01-27T03:53:03.597Z,4.15
2023-01-27T03:55:31.990Z,4.03
2023-01-27T03:58:14.840Z,3.94
2023-01-27T04:00:42.211Z,4.18
2023-01-27T04:03:28.264Z,4.22
2023-01-27T04:06:14.706Z,4.33
2023-01-27T04:08:45.012Z,4.27
2023-01-27T04:11:31.997Z,4.33
2023-01-27T04:14:04.722Z,4.17
2023-01-27T04:16:32.875Z,4.17
2023-01-27T04:19:00.489Z,4.32
2023-01-27T04:21:27.714Z,4.29
2023-01-27T04:23:56.680Z,4.39
2023-01-27T04:26:24.450Z,4.43
2023-01-27T04:28:52.533Z,4.45
2023-01-27T04:31:20.049Z,4.41
2023-01-27T04:33:47.241Z,4.49
2023-01-27T04:36:14.621Z,4.50
2023-01-27T04:38:46.868Z,4.50
2023-01-27T04:41:14.475Z,4.52
2023-01-27T04:43:42.369Z,4.61
2023-01-27T04:46:10.025Z,4.51
2023-01-27T04:48:37.487Z,4.52
2023-01-27T04:51:05.080Z,4.51
2023-01-27T04:53:32.503Z,4.61
2023-01-27T04:56:07.346Z,4.58
2023-01-27T04:58:34.605Z,4.52
2023-01-27T05:01:01.868Z,4.58
2023-01-27T05:03:29.304Z,4.56
2023-01-27T05:05:56.673Z,4.59
2023-01-27T05:08:24.040Z,4.57
2023-01-27T05:10:52.834Z,4.54
2023-01-27T05:13:20.133Z,4.56
2023-01-27T05:15:48.454Z,4.57
2023-01-27T05:18:16.005Z,4.61
2023-01-27T05:20:43.419Z,4.61
2023-01-27T05:23:29.231Z,4.59
2023-01-27T05:25:56.617Z,4.62
2023-01-27T05:28:24.120Z,4.57
2023-01-27T05:30:51.400Z,4.56
2023-01-27T05:33:18.690Z,4.63
2023-01-27T05:35:46.035Z,4.64
2023-01-27T05:38:13.382Z,4.52
2023-01-27T05:40:40.538Z,4.55
2023-01-27T05:43:07.874Z,4.56
2023-01-27T05:45:35.079Z,4.54
2023-01-27T05:48:02.463Z,4.48
2023-01-27T05:50:29.681Z,4.42
2023-01-27T05:52:56.954Z,4.44
2023-01-27T05:55:24.546Z,4.49
2023-01-27T05:57:52.175Z,4.47
2023-01-27T06:00:20.321Z,4.35
2023-01-27T06:02:47.725Z,4.27
2023-01-27T06:05:16.076Z,4.31
2023-01-27T06:07:43.925Z,4.34
2023-01-27T06:10:12.086Z,4.42
2023-01-27T06:12:39.258Z,4.41
2023-01-27T06:15:06.838Z,4.35
2023-01-27T06:17:34.245Z,4.29
2023-01-27T06:20:01.599Z,4.34
2023-01-27T06:22:28.785Z,4.20
2023-01-27T06:24:56.131Z,4.26
2023-01-27T06:27:26.387Z,4.10
2023-01-27T06:29:54.101Z,4.19
2023-01-27T06:32:22.096Z,4.16
2023-01-27T06:34:49.589Z,4.17
2023-01-27T06:37:16.794Z,4.26
2023-01-27T06:39:44.349Z,4.19
2023-01-27T06:42:11.752Z,4.18
2023-01-27T06:44:39.182Z,4.30
2023-01-27T06:47:06.456Z,4.19
2023-01-27T06:49:34.177Z,4.10
2023-01-27T06:52:02.409Z,4.04
2023-01-27T06:54:30.999Z,4.03
2023-01-27T06:57:00.746Z,4.06
2023-01-27T06:59:29.483Z,3.99
2023-01-27T07:01:57.437Z,4.06
2023-01-27T07:04:25.356Z,4.13
2023-01-27T07:06:53.695Z,4.13
2023-01-27T07:09:25.068Z,4.19
2023-01-27T07:11:54.155Z,4.04
2023-01-27T07:14:22.093Z,4.07
2023-01-27T07:16:50.877Z,4.06
2023-01-27T07:19:20.588Z,4.23
2023-01-27T07:21:48.724Z,4.20
2023-01-27T07:24:16.868Z,4.13
2023-01-27T07:26:45.786Z,4.14
2023-01-27T07:29:17.212Z,4.21
2023-01-27T07:31:46.652Z,4.14
2023-01-27T07:34:15.170Z,4.18
2023-01-27T07:36:43.373Z,4.32
2023-01-27T07:39:11.304Z,4.33
2023-01-27T07:41:39.335Z,4.29
2023-01-27T07:44:08.220Z,4.24
2023-01-27T07:46:37.539Z,4.30
2023-01-27T07:49:06.306Z,4.24
2023-01-27T07:51:37.825Z,4.37
2023-01-27T07:54:07.747Z,4.32
2023-01-27T07:56:37.308Z,4.33
2023-01-27T07:59:05.397Z,4.45
2023-01-27T08:01:33.605Z,4.34
2023-01-27T08:04:01.514Z,4.46
2023-01-27T08:06:29.390Z,4.42
2023-01-27T08:08:57.509Z,4.52
2023-01-27T08:11:25.047Z,4.44
2023-01-27T08:13:54.302Z,4.41
2023-01-27T08:16:22.276Z,4.41
2023-01-27T08:18:50.642Z,4.31
2023-01-27T08:21:18.471Z,4.51
2023-01-27T08:23:46.189Z,4.50
2023-01-27T08:26:14.643Z,4.60
2023-01-27T08:28:42.884Z,4.56
2023-01-27T08:31:17.052Z,4.59
2023-01-27T08:33:47.343Z,4.61
2023-01-27T08:36:17.696Z,4.59
2023-01-27T08:38:51.294Z,4.56
2023-01-27T08:41:30.205Z,4.63
2023-01-27T08:44:01.519Z,4.74
2023-01-27T08:46:31.688Z,4.70
2023-01-27T08:49:00.009Z,4.78
2023-01-27T08:51:28.128Z,4.96
2023-01-27T08:53:59.811Z,4.95
2023-01-27T08:56:28.513Z,4.89
2023-01-27T08:58:57.900Z,4.80
2023-01-27T09:01:27.909Z,4.77
2023-01-27T09:03:55.750Z,4.85
2023-01-27T09:06:24.387Z,4.83
2023-01-27T09:09:13.133Z,4.84
2023-01-27T09:11:43.740Z,4.93
2023-01-27T09:14:13.664Z,4.91
2023-01-27T09:16:45.253Z,5.00
2023-01-27T09:19:14.746Z,4.99
2023-01-27T09:21:42.802Z,5.01
2023-01-27T09:24:12.461Z,4.99
2023-01-27T09:26:40.863Z,5.11
2023-01-27T09:29:08.654Z,5.10
2023-01-27T09:31:36.625Z,5.32
2023-01-27T09:34:07.901Z,5.32
2023-01-27T09:36:44.973Z,5.41
2023-01-27T09:39:14.432Z,5.44
2023-01-27T09:41:51.956Z,5.42
2023-01-27T09:44:20.694Z,5.38
2023-01-27T09:47:00.620Z,5.30
2023-01-27T09:49:59.756Z,5.40
2023-01-27T09:52:52.198Z,5.45
2023-01-27T09:55:20.493Z,5.31
2023-01-27T09:57:54.267Z,5.49
2023-01-27T10:00:42.384Z,5.60
2023-01-27T10:03:44.509Z,5.61
2023-01-27T10:06:34.949Z,5.58
2023-01-27T10:09:36.174Z,5.57
2023-01-27T10:12:29.120Z,5.81
2023-01-27T10:15:16.723Z,5.76
2023-01-27T10:18:00.626Z,5.84
2023-01-27T10:20:41.595Z,5.79
2023-01-27T10:23:30.849Z,5.85
2023-01-27T10:26:25.665Z,6.01
2023-01-27T10:29:11.831Z,6.08
2023-01-27T10:31:55.438Z,6.22
2023-01-27T10:34:34.055Z,6.30
2023-01-27T10:37:20.731Z,6.35
2023-01-27T10:39:59.829Z,6.30
2023-01-27T10:42:44.702Z,6.26
2023-01-27T10:45:59.432Z,6.31
2023-01-27T10:48:50.678Z,6.07
2023-01-27T10:51:42.402Z,6.11
2023-01-27T10:54:23.856Z,6.06
2023-01-27T10:57:02.097Z,6.13
2023-01-27T10:59:36.203Z,6.37
2023-01-27T11:02:10.438Z,6.53
2023-01-27T11:04:49.192Z,6.43
2023-01-27T11:07:22.400Z,6.48
2023-01-27T11:09:57.498Z,6.45
2023-01-27T11:12:33.039Z,6.28
2023-01-27T11:15:10.538Z,6.22
2023-01-27T11:17:46.685Z,6.35
2023-01-27T11:20:37.617Z,6.27
2023-01-27T11:23:09.243Z,6.42
2023-01-27T11:25:58.978Z,6.52
2023-01-27T11:28:50.278Z,6.67
2023-01-27T11:31:55.773Z,6.72
2023-01-27T11:34:51.095Z,6.80
2023-01-27T11:37:26.607Z,6.72
2023-01-27T11:40:00.616Z,6.68
2023-01-27T11:42:35.805Z,6.60
2023-01-27T11:45:04.829Z,6.62
2023-01-27T11:47:39.353Z,6.51
2023-01-27T11:50:09.130Z,6.28
2023-01-27T11:52:39.067Z,6.40
2023-01-27T11:55:28.547Z,6.41
2023-01-27T11:58:16.368Z,6.39
2023-01-27T12:00:53.278Z,6.27
2023-01-27T12:03:42.076Z,6.44
2023-01-27T12:06:18.702Z,6.41
2023-01-27T12:08:50.989Z,6.36
2023-01-27T12:11:28.376Z,6.36
2023-01-27T12:14:02.418Z,6.43
2023-01-27T12:16:53.064Z,6.26
2023-01-27T12:19:30.222Z,6.16
2023-01-27T12:22:11.620Z,6.45
2023-01-27T12:24:46.948Z,6.30
2023-01-27T12:27:30.978Z,6.41
2023-01-27T12:30:05.509Z,6.46
2023-01-27T12:32:43.985Z,6.38
2023-01-27T12:35:29.272Z,6.30
2023-01-27T12:38:03.884Z,6.36
2023-01-27T12:40:34.554Z,6.26
2023-01-27T12:43:03.147Z,6.31
2023-01-27T12:45:38.997Z,6.17
2023-01-27T12:48:10.120Z,6.24
2023-01-27T12:50:43.510Z,6.30
2023-01-27T12:53:24.530Z,6.26
2023-01-27T12:56:16.971Z,6.22
2023-01-27T12:59:00.893Z,6.33
2023-01-27T13:01:35.318Z,6.24
2023-01-27T13:04:25.561Z,6.17
2023-01-27T13:06:56.479Z,6.04
2023-01-27T13:09:35.952Z,6.20
2023-01-27T13:12:18.127Z,6.14
2023-01-27T13:14:46.142Z,6.16
2023-01-27T13:17:36.978Z,6.38
2023-01-27T13:20:32.180Z,6.41
2023-01-27T13:23:09.229Z,6.44
2023-01-27T13:25:48.397Z,6.56
2023-01-27T13:28:50.471Z,6.53
2023-01-27T13:31:39.511Z,6.65
2023-01-27T13:34:34.110Z,6.66
2023-01-27T13:37:07.803Z,6.67
2023-01-27T13:39:45.335Z,6.50
2023-01-27T13:42:44.921Z,6.71
2023-01-27T13:45:38.590Z,6.73
2023-01-27T13:48:36.229Z,6.66
2023-01-27T13:51:12.462Z,6.87
2023-01-27T13:53:40.646Z,6.88
2023-01-27T13:56:20.243Z,6.97
2023-01-27T13:59:15.404Z,6.89
2023-01-27T14:02:01.652Z,6.82
2023-01-27T14:04:54.844Z,6.74
2023-01-27T14:07:34.628Z,6.55
2023-01-27T14:10:49.556Z,6.53
2023-01-27T14:13:53.110Z,6.48
2023-01-27T14:16:58.853Z,6.42
2023-01-27T14:19:38.380Z,6.38
2023-01-27T14:22:32.897Z,6.43
2023-01-27T14:25:15.614Z,6.50
2023-01-27T14:28:01.386Z,6.42
2023-01-27T14:30:40.533Z,6.34
2023-01-27T14:33:23.003Z,6.33
2023-01-27T14:36:17.817Z,6.33
2023-01-27T14:38:50.906Z,6.38
2023-01-27T14:42:01.703Z,6.38
2023-01-27T14:44:43.705Z,6.15
2023-01-27T14:47:26.410Z,6.24
2023-01-27T14:50:04.135Z,6.20
2023-01-27T14:52:45.846Z,6.29
2023-01-27T14:55:44.202Z,6.29
2023-01-27T14:58:38.691Z,6.30
2023-01-27T15:01:22.143Z,6.34
2023-01-27T15:04:43.720Z,6.35
2023-01-27T15:07:48.685Z,6.40
2023-01-27T15:10:29.611Z,6.16
2023-01-27T15:13:08.998Z,6.27
2023-01-27T15:16:00.906Z,6.34
2023-01-27T15:18:38.487Z,6.33
2023-01-27T15:21:34.328Z,6.35
2023-01-27T15:24:26.017Z,6.41
2023-01-27T15:26:54.962Z,6.31
2023-01-27T15:29:31.649Z,6.24
2023-01-27T15:32:27.145Z,6.27
2023-01-27T15:35:28.373Z,6.30
2023-01-27T15:38:09.091Z,6.21
2023-01-27T15:41:05.063Z,6.21
2023-01-27T15:43:33.372Z,6.16
2023-01-27T15:46:24.284Z,6.09
2023-01-27T15:48:52.138Z,6.09
2023-01-27T15:51:21.640Z,6.09
2023-01-27T15:53:52.938Z,6.12
2023-01-27T15:56:20.464Z,6.04
2023-01-27T15:58:55.685Z,6.11
2023-01-27T16:01:36.737Z,5.88
2023-01-27T16:04:23.915Z,5.99
2023-01-27T16:07:04.178Z,5.91
2023-01-27T16:09:45.097Z,5.90
2023-01-27T16:12:24.856Z,5.91
2023-01-27T16:15:01.104Z,5.93
2023-01-27T16:17:34.621Z,5.88
2023-01-27T16:20:11.491Z,5.86
2023-01-27T16:22:41.968Z,5.79
2023-01-27T16:25:25.446Z,5.86
2023-01-27T16:28:14.125Z,5.82
2023-01-27T16:30:49.813Z,5.75
2023-01-27T16:33:20.928Z,5.81
2023-01-27T16:35:58.861Z,5.86
2023-01-27T16:38:32.530Z,5.83
2023-01-27T16:41:03.989Z,5.83
2023-01-27T16:43:44.114Z,5.72
2023-01-27T16:47:15.985Z,5.71
2023-01-27T16:49:44.580Z,5.65
2023-01-27T16:52:24.709Z,5.55
2023-01-27T16:54:58.672Z,5.54
2023-01-27T16:57:25.858Z,5.67
2023-01-27T16:59:54.115Z,5.55
2023-01-27T17:02:24.246Z,5.57
2023-01-27T17:04:55.898Z,5.60
2023-01-27T17:07:23.654Z,5.55
2023-01-27T17:09:59.679Z,5.53
2023-01-27T17:12:43.656Z,5.57
2023-01-27T17:15:20.701Z,5.39
2023-01-27T17:17:50.320Z,5.56
2023-01-27T17:20:28.508Z,5.54
2023-01-27T17:22:58.767Z,5.53
2023-01-27T17:25:36.824Z,5.40
2023-01-27T17:28:10.683Z,5.40
2023-01-27T17:30:42.282Z,5.36
2023-01-27T17:33:18.649Z,5.29
2023-01-27T17:35:52.660Z,5.46
2023-01-27T17:38:45.325Z,5.41
2023-01-27T17:41:36.935Z,5.43
2023-01-27T17:44:14.917Z,5.34
2023-01-27T17:46:42.132Z,5.36
2023-01-27T17:49:17.049Z,5.36
2023-01-27T17:51:47.193Z,5.25
2023-01-27T17:54:39.925Z,5.42
2023-01-27T17:57:23.692Z,5.42
2023-01-27T17:59:54.573Z,5.32
2023-01-27T18:02:27.580Z,5.34
2023-01-27T18:04:58.787Z,5.38
2023-01-27T18:07:26.208Z,5.37
2023-01-27T18:09:56.332Z,5.35
2023-01-27T18:12:33.597Z,5.31
2023-01-27T18:15:49.762Z,5.27
2023-01-27T18:18:25.084Z,5.28
2023-01-27T18:21:05.778Z,5.20
2023-01-27T18:23:43.630Z,5.24
2023-01-27T18:26:10.907Z,5.28
2023-01-27T18:28:39.050Z,5.31
2023-01-27T18:31:14.244Z,5.15
2023-01-27T18:33:43.740Z,5.22
2023-01-27T18:36:23.820Z,5.23
2023-01-27T18:38:51.726Z,5.23
2023-01-27T18:41:29.356Z,5.21
2023-01-27T18:43:57.153Z,5.17
2023-01-27T18:46:26.131Z,5.24
2023-01-27T18:48:55.945Z,5.17
2023-01-27T18:51:23.365Z,5.16
2023-01-27T18:53:50.574Z,5.23
2023-01-27T18:56:21.295Z,5.13
2023-01-27T18:58:48.759Z,5.07
2023-01-27T19:01:22.214Z,5.12
2023-01-27T19:03:52.761Z,5.12
2023-01-27T19:06:21.127Z,5.04
2023-01-27T19:08:51.433Z,5.00
2023-01-27T19:11:18.792Z,5.02
2023-01-27T19:13:46.404Z,5.03
2023-01-27T19:16:16.916Z,5.05
2023-01-27T19:18:45.136Z,4.93
2023-01-27T19:21:17.034Z,5.02
2023-01-27T19:23:45.162Z,5.00
2023-01-27T19:26:20.665Z,4.99
2023-01-27T19:28:52.493Z,5.04
2023-01-27T19:31:20.629Z,4.81
2023-01-27T19:33:48.298Z,5.08
2023-01-27T19:36:32.297Z,4.95
2023-01-27T19:39:10.255Z,4.99
2023-01-27T19:41:37.597Z,4.89
2023-01-27T19:44:05.028Z,5.04
2023-01-27T19:46:34.470Z,4.99
2023-01-27T19:49:02.042Z,4.96
2023-01-27T19:51:29.279Z,5.01
2023-01-27T19:53:56.860Z,5.00
2023-01-27T19:56:24.622Z,4.97
2023-01-27T19:58:54.458Z,4.96
2023-01-27T20:01:25.100Z,4.90
2023-01-27T20:03:54.155Z,4.96
2023-01-27T20:06:24.143Z,4.94
2023-01-27T20:08:54.940Z,4.89
2023-01-27T20:11:43.044Z,4.94
2023-01-27T20:14:19.650Z,4.96
2023-01-27T20:16:47.844Z,4.89
2023-01-27T20:19:16.415Z,4.86
2023-01-27T20:21:47.379Z,4.84
2023-01-27T20:24:19.895Z,4.87
2023-01-27T20:26:47.258Z,4.88
2023-01-27T20:29:14.596Z,4.79
2023-01-27T20:31:42.422Z,4.87
2023-01-27T20:34:09.772Z,4.95
2023-01-27T20:36:37.142Z,4.91
2023-01-27T20:39:04.576Z,4.90
2023-01-27T20:41:31.729Z,4.83
2023-01-27T20:44:00.920Z,4.93
2023-01-27T20:46:30.794Z,4.90
2023-01-27T20:48:59.801Z,4.91
2023-01-27T20:51:27.205Z,4.92
2023-01-27T20:53:54.583Z,4.87
2023-01-27T20:56:24.227Z,4.91
2023-01-27T20:58:51.620Z,4.99
2023-01-27T21:01:21.429Z,4.92
2023-01-27T21:03:49.299Z,4.84
2023-01-27T21:06:19.686Z,4.87
2023-01-27T21:08:48.272Z,4.94
2023-01-27T21:11:18.084Z,4.99
2023-01-27T21:13:45.760Z,4.98
2023-01-27T21:16:13.698Z,4.89
2023-01-27T21:18:40.995Z,4.91
2023-01-27T21:21:08.326Z,4.87
2023-01-27T21:23:35.707Z,4.95
2023-01-27T21:26:05.224Z,4.89
2023-01-27T21:28:34.084Z,4.81
2023-01-27T21:31:09.194Z,4.84
2023-01-27T21:33:38.237Z,4.65
2023-01-27T21:36:09.300Z,4.87
2023-01-27T21:38:38.360Z,4.89
2023-01-27T21:41:12.263Z,4.84
2023-01-27T21:43:58.905Z,4.79
2023-01-27T21:46:26.456Z,4.83
2023-01-27T21:48:53.643Z,4.78
2023-01-27T21:51:21.761Z,4.69
2023-01-27T21:53:49.031Z,4.69
2023-01-27T21:56:16.153Z,4.68
2023-01-27T21:58:43.562Z,4.83
2023-01-27T22:01:11.593Z,4.74
2023-01-27T22:03:39.008Z,4.69
2023-01-27T22:06:08.112Z,4.55
2023-01-27T22:08:36.360Z,4.62
2023-01-27T22:11:11.673Z,4.64
2023-01-27T22:13:39.805Z,4.71
2023-01-27T22:16:07.832Z,4.66
2023-01-27T22:18:36.308Z,4.62
2023-01-27T22:21:03.683Z,4.68
2023-01-27T22:23:30.874Z,4.64
2023-01-27T22:25:58.516Z,4.65
2023-01-27T22:28:26.867Z,4.61
2023-01-27T22:30:54.857Z,4.64
2023-01-27T22:33:22.137Z,4.61
2023-01-27T22:35:49.457Z,4.65
2023-01-27T22:38:16.533Z,4.66
2023-01-27T22:40:43.846Z,4.63
2023-01-27T22:43:11.294Z,4.58
2023-01-27T22:45:39.727Z,4.59
2023-01-27T22:48:09.136Z,4.55
2023-01-27T22:50:37.111Z,4.47
2023-01-27T22:53:05.626Z,4.54
2023-01-27T22:55:33.285Z,4.47
2023-01-27T22:58:00.512Z,4.37
2023-01-27T23:00:28.173Z,4.51
2023-01-27T23:02:55.571Z,4.58
2023-01-27T23:05:22.727Z,4.49
2023-01-27T23:07:53.639Z,4.49
2023-01-27T23:10:20.945Z,4.54
2023-01-27T23:12:48.180Z,4.54
2023-01-27T23:15:21.155Z,4.53
2023-01-27T23:17:49.387Z,4.46
2023-01-27T23:20:17.058Z,4.49
2023-01-27T23:22:44.811Z,4.50
2023-01-27T23:25:13.482Z,4.50
2023-01-27T23:27:42.141Z,4.52
2023-01-27T23:30:11.413Z,4.49
2023-01-27T23:32:39.343Z,4.47
2023-01-27T23:35:07.403Z,4.46
2023-01-27T23:37:36.488Z,4.48
2023-01-27T23:40:04.152Z,4.33
2023-01-27T23:42:31.441Z,4.39
2023-01-27T23:44:58.609Z,4.31
2023-01-27T23:47:26.084Z,4.37
2023-01-27T23:49:53.340Z,4.37
2023-01-27T23:52:20.979Z,4.35
2023-01-27T23:54:48.131Z,4.27
2023-01-27T23:57:15.453Z,4.21
2023-01-27T23:59:42.715Z,4.25
